VHHH Airport Information

Runway Information
Runway 07R Length 12467 ft width 197 ft
Elevation 28 ft Threshold 525 ft Heading 71
Runway 25L Length 12467 ft Width 197 ft
Elevation 27 ft Threshold ft Heading 251
Runway 07C Length 12467 ft width 197 ft
Elevation 22 ft Threshold 565 ft Heading 71
Runway 25C Length 12467 ft Width 197 ft
Elevation 23 ft Threshold 580 ft Heading 251
Airport Frequencies
Type AFIS Name FLIGHT SER Frequency 122.4 MHZ
Type APP Name APP Frequency 119.1 MHZ
Type APP Name Director Frequency 119.5 MHZ
Type ATIS-A Name Arrivel Frequency 128.2 MHZ
Type ATIS-D Name Departure Frequency 127.05 MHZ
Type CAC Name ZONE CON Frequency 120.6 MHZ
Type CLD Name CLNC DEL Frequency 129.9 MHZ
Type DEP Name DEP Frequency 123.8 MHZ
Type EMG Name Hong Kong Frequency 121.5 MHZ
Type GND Name GND North Frequency 121.6 MHZ
Type GND Name GND South Frequency 122.55 MHZ
Type RDR Name Radar Frequency 121.3 MHZ
Type RDR Name PRECISION Frequency 133.7 MHZ
Type TWR Name Tower Nort Frequency 118.2 MHZ
Type TWR Name TWR South Frequency 118.4 MHZ
Airport Navaids
Type VOR-DME Name Cheung Chau Frequency 112300 KHZ
Type NDB Name Cape D Aguilar Frequency 338 KHZ
Type NDB Name Lam Chau Frequency 390 KHZ
Type VOR-DME Name Lung Kwu Chau Frequency 113200 KHZ
Type VOR-DME Name Siu Mo To Frequency 114800 KHZ
Type VOR-DME Name Tathong Point Frequency 115500 KHZ
Airport Weather Information & NOTAM
ADDS - METARS form results

(0348 UTC 11 August 2022)
Data provider http://aviationweather.gov/metar/data/
 
METAR text: VHHH 110332Z 13008KT 6000 2100E TSRA FEW012CB SCT018 25/24 Q1008 RERA TEMPO 18015G25KT 2500 TSRA SHRA FEW010CB SCT020
Conditions at: VHHH (HONG KONG INTL , CN) observed 0332 UTC 11 August 2022
Temperature: 25.0°C (77°F)
Dewpoint: 24.0°C (75°F) [RH = 94%]
Pressure (altimeter): 29.76 inches Hg (1008.0 mb)
Winds: from the SE (130 degrees) at 9 MPH (8 knots; 4.1 m/s)
Visibility: 4 miles ( 6 km)
Ceiling: at least 12,000 feet AGL
Clouds: few clouds at 1200 feet AGL
scattered clouds at 1800 feet AGL
Weather: TSRA  (rain associated with thunderstorm(s))

METAR text: VHHH 110330Z 13008KT 4800 2000E SHRA VCTS FEW012CB SCT018 25/23 Q1008 RERA TEMPO 18015G25KT 2500 TSRA SHRA FEW010CB SCT020
Conditions at: VHHH (HONG KONG INTL , CN) observed 0330 UTC 11 August 2022
Temperature: 25.0°C (77°F)
Dewpoint: 23.0°C (73°F) [RH = 89%]
Pressure (altimeter): 29.76 inches Hg (1008.0 mb)
Winds: from the SE (130 degrees) at 9 MPH (8 knots; 4.1 m/s)
Visibility: 2.98 miles (4.80 km)
Ceiling: at least 12,000 feet AGL
Clouds: few clouds at 1200 feet AGL
scattered clouds at 1800 feet AGL
Weather: VCTS SHRA  (thunderstorm in vicinity, rain showers)

METAR text: VHHH 110326Z 13008KT 3400 +SHRA VCTS FEW012CB SCT018 25/23 Q1009 TEMPO 18015G25KT 2500 TSRA SHRA FEW010CB SCT020
Conditions at: VHHH (HONG KONG INTL , CN) observed 0326 UTC 11 August 2022
Temperature: 25.0°C (77°F)
Dewpoint: 23.0°C (73°F) [RH = 89%]
Pressure (altimeter): 29.79 inches Hg (1009.0 mb)
Winds: from the SE (130 degrees) at 9 MPH (8 knots; 4.1 m/s)
Visibility: 2.11 miles (3.40 km)
Ceiling: at least 12,000 feet AGL
Clouds: few clouds at 1200 feet AGL
scattered clouds at 1800 feet AGL
Weather: +SHRA VCTS  (heavy rain showers, thunderstorm in vicinity)

METAR text: VHHH 110300Z 19007KT 150V220 2500 1100E R07R/P2000D R25L/P2000U R07L/P2000U R25R/1900U +SHRA FEW012CB SCT018 25/23 Q1008 TEMPO 18015G25KT 2500 TSRA SHRA FEW010CB SCT020
Conditions at: VHHH (HONG KONG INTL , CN) observed 0300 UTC 11 August 2022
Temperature: 25.0°C (77°F)
Dewpoint: 23.0°C (73°F) [RH = 89%]
Pressure (altimeter): 29.76 inches Hg (1008.0 mb)
Winds: from the S (190 degrees) at 8 MPH (7 knots; 3.6 m/s)
Visibility: 1.55 miles (2.49 km)
Ceiling: at least 12,000 feet AGL
Clouds: few clouds at 1200 feet AGL
scattered clouds at 1800 feet AGL
Weather: +SHRA  (heavy rain showers)

Forecast for: VHHH (HONG KONG INTL , CN)
Text: TAF VHHH 102300Z 1100/1206 13010KT 9999 FEW015 SCT025 TX30/1106Z TX31/1206Z TN27/1122Z
Forecast period: 0000 UTC 11 August 2022 to 0600 UTC 12 August 2022
Forecast type: FROM: standard forecast or significant change
Winds: from the SE (130 degrees) at 12 MPH (10 knots; 5.1 m/s)
Visibility: 6 or more miles (10+ km)
Ceiling: at least 12,000 feet AGL
Clouds: few clouds at 1500 feet AGL
scattered clouds at 2500 feet AGL
Weather: no significant weather forecast for this period
Text: TEMPO 1100/1103 3500 SHRA FEW010CB SCT020
Forecast period: 0000 to 0300 UTC 11 August 2022
Forecast type: TEMPORARY: The following changes expected for less than half the time period
Visibility: 2.17 miles (3.49 km)
Ceiling: at least 12,000 feet AGL
Clouds: few clouds at 1000 feet AGL
scattered clouds at 2000 feet AGL
Weather: SHRA  (rain showers)
Text: TEMPO 1103/1109 13015G25KT 3000 TSRA SHRA FEW010CB SCT020
Forecast period: 0300 to 0900 UTC 11 August 2022
Forecast type: TEMPORARY: The following changes expected for less than half the time period
Winds: from the SE (130 degrees) at 17 MPH (15 knots; 7.7 m/s)
gusting to 29 MPH (25 knots; 12.9 m/s)
Visibility: 1.86 miles (2.99 km)
Ceiling: at least 12,000 feet AGL
Clouds: few clouds at 1000 feet AGL
scattered clouds at 2000 feet AGL
Weather: TSRA SHRA  (rain associated with thunderstorm(s), rain showers)
Text: TEMPO 1121/1203 3500 SHRA FEW010CB SCT020
Forecast period: 2100 UTC 11 August 2022 to 0300 UTC 12 August 2022
Forecast type: TEMPORARY: The following changes expected for less than half the time period
Visibility: 2.17 miles (3.49 km)
Ceiling: at least 12,000 feet AGL
Clouds: few clouds at 1000 feet AGL
scattered clouds at 2000 feet AGL
Weather: SHRA  (rain showers)